createdAt,value
2023-05-11T00:01:45.539Z,4.57
2023-05-11T00:04:12.285Z,4.70
2023-05-11T00:06:39.080Z,3.95
2023-05-11T00:09:05.800Z,4.18
2023-05-11T00:11:32.657Z,4.50
2023-05-11T00:13:59.346Z,4.65
2023-05-11T00:16:26.267Z,4.40
2023-05-11T00:18:53.031Z,4.68
2023-05-11T00:21:19.782Z,4.05
2023-05-11T00:23:46.414Z,4.10
2023-05-11T00:26:13.106Z,4.18
2023-05-11T00:28:40.092Z,4.43
2023-05-11T00:31:06.860Z,4.28
2023-05-11T00:33:33.550Z,3.65
2023-05-11T00:36:00.201Z,4.28
2023-05-11T00:38:26.933Z,4.18
2023-05-11T00:40:53.650Z,3.90
2023-05-11T00:43:20.720Z,4.68
2023-05-11T00:45:49.771Z,3.53
2023-05-11T00:48:16.940Z,3.80
2023-05-11T00:50:44.565Z,3.80
2023-05-11T00:53:11.746Z,3.90
2023-05-11T00:55:38.573Z,4.00
2023-05-11T00:58:08.376Z,3.58
2023-05-11T01:00:36.723Z,4.05
2023-05-11T01:03:04.636Z,4.10
2023-05-11T01:05:44.551Z,4.07
2023-05-11T01:08:56.865Z,4.20
2023-05-11T01:11:37.426Z,3.70
2023-05-11T01:14:16.696Z,3.80
2023-05-11T01:16:49.456Z,3.58
2023-05-11T01:19:41.465Z,4.23
2023-05-11T01:23:05.395Z,3.63
2023-05-11T01:26:12.209Z,3.40
2023-05-11T01:29:16.627Z,3.53
2023-05-11T01:31:47.799Z,4.03
2023-05-11T01:34:22.527Z,3.57
2023-05-11T01:37:05.126Z,3.88
2023-05-11T01:39:36.168Z,3.88
2023-05-11T01:42:09.900Z,3.88
2023-05-11T01:44:43.006Z,4.30
2023-05-11T01:47:11.051Z,4.07
2023-05-11T01:49:40.859Z,3.90
2023-05-11T01:52:09.865Z,3.50
2023-05-11T01:54:38.651Z,4.10
2023-05-11T01:57:07.061Z,3.63
2023-05-11T01:59:35.958Z,3.53
2023-05-11T02:02:04.055Z,4.28
2023-05-11T02:04:31.821Z,3.80
2023-05-11T02:07:01.260Z,3.63
2023-05-11T02:09:31.825Z,3.90
2023-05-11T02:12:01.830Z,4.70
2023-05-11T02:14:34.294Z,3.70
2023-05-11T02:17:03.614Z,3.67
2023-05-11T02:19:33.975Z,3.60
2023-05-11T02:22:01.621Z,3.75
2023-05-11T02:24:30.786Z,3.40
2023-05-11T02:26:59.001Z,4.05
2023-05-11T02:29:26.329Z,4.63
2023-05-11T02:31:57.783Z,4.72
2023-05-11T02:34:32.947Z,3.40
2023-05-11T02:37:02.575Z,3.80
2023-05-11T02:39:36.137Z,4.43
2023-05-11T02:42:14.298Z,3.75
2023-05-11T02:44:50.439Z,3.90
2023-05-11T02:47:18.793Z,4.13
2023-05-11T02:49:53.689Z,4.20
2023-05-11T02:52:27.397Z,3.45
2023-05-11T02:54:55.091Z,4.00
2023-05-11T02:57:21.860Z,4.30
2023-05-11T02:59:50.042Z,3.75
2023-05-11T03:02:16.975Z,4.40
2023-05-11T03:04:43.917Z,4.47
2023-05-11T03:07:11.004Z,4.30
2023-05-11T03:09:38.015Z,4.20
2023-05-11T03:12:05.668Z,3.40
2023-05-11T03:14:36.164Z,4.03
2023-05-11T03:17:03.529Z,4.20
2023-05-11T03:19:31.826Z,4.10
2023-05-11T03:22:00.728Z,4.03
2023-05-11T03:24:27.945Z,4.13
2023-05-11T03:26:56.082Z,3.87
2023-05-11T03:29:27.193Z,4.10
2023-05-11T03:31:55.433Z,3.72
2023-05-11T03:34:23.400Z,3.72
2023-05-11T03:36:51.078Z,4.00
2023-05-11T03:39:19.956Z,4.53
2023-05-11T03:41:50.460Z,4.80
2023-05-11T03:44:21.763Z,4.55
2023-05-11T03:46:50.989Z,4.20
2023-05-11T03:49:19.576Z,3.72
2023-05-11T03:51:46.934Z,3.70
2023-05-11T03:54:14.216Z,3.80
2023-05-11T03:56:40.949Z,3.33
2023-05-11T03:59:08.492Z,4.13
2023-05-11T04:01:35.508Z,4.13
2023-05-11T04:04:02.334Z,4.10
2023-05-11T04:06:29.089Z,3.72
2023-05-11T04:09:05.128Z,3.70
2023-05-11T04:11:36.268Z,3.58
2023-05-11T04:14:02.926Z,4.90
2023-05-11T04:16:29.850Z,4.47
2023-05-11T04:18:56.689Z,3.95
2023-05-11T04:21:23.371Z,3.67
2023-05-11T04:23:50.130Z,3.55
2023-05-11T04:26:17.813Z,3.90
2023-05-11T04:28:44.550Z,3.60
2023-05-11T04:31:11.308Z,4.13
2023-05-11T04:33:38.157Z,3.90
2023-05-11T04:36:05.456Z,4.00
2023-05-11T04:38:32.138Z,3.60
2023-05-11T04:41:03.138Z,4.13
2023-05-11T04:43:29.937Z,4.30
2023-05-11T04:45:56.933Z,3.72
2023-05-11T04:48:26.961Z,3.47
2023-05-11T04:50:55.348Z,3.92
2023-05-11T04:53:25.363Z,4.30
2023-05-11T04:55:52.626Z,4.55
2023-05-11T04:58:19.332Z,4.38
2023-05-11T05:00:46.054Z,4.40
2023-05-11T05:03:12.933Z,3.70
2023-05-11T05:05:39.673Z,4.00
2023-05-11T05:08:07.424Z,3.90
2023-05-11T05:10:34.114Z,4.30
2023-05-11T05:13:00.777Z,3.45
2023-05-11T05:15:27.442Z,3.60
2023-05-11T05:17:54.235Z,4.33
2023-05-11T05:20:22.148Z,4.13
2023-05-11T05:22:48.772Z,3.88
2023-05-11T05:25:15.586Z,4.00
2023-05-11T05:27:42.593Z,3.97
2023-05-11T05:30:16.246Z,3.70
2023-05-11T05:32:43.457Z,3.50
2023-05-11T05:35:10.311Z,3.80
2023-05-11T05:37:37.705Z,4.00
2023-05-11T05:40:05.636Z,3.58
2023-05-11T05:42:35.555Z,3.33
2023-05-11T05:45:03.095Z,4.20
2023-05-11T05:47:31.281Z,3.70
2023-05-11T05:49:58.042Z,3.95
2023-05-11T05:52:24.987Z,3.65
2023-05-11T05:54:52.567Z,3.40
2023-05-11T05:57:19.229Z,4.38
2023-05-11T05:59:46.324Z,3.75
2023-05-11T06:02:14.888Z,3.47
2023-05-11T06:04:42.273Z,3.90
2023-05-11T06:07:09.514Z,3.60
2023-05-11T06:09:39.036Z,3.75
2023-05-11T06:12:06.202Z,4.20
2023-05-11T06:14:35.505Z,3.90
2023-05-11T06:17:03.133Z,3.70
2023-05-11T06:19:29.882Z,3.43
2023-05-11T06:21:56.931Z,4.07
2023-05-11T06:24:23.617Z,3.28
2023-05-11T06:26:50.416Z,3.47
2023-05-11T06:29:19.182Z,3.47
2023-05-11T06:31:46.326Z,3.60
2023-05-11T06:34:13.060Z,3.92
2023-05-11T06:36:39.955Z,3.40
2023-05-11T06:39:06.905Z,3.50
2023-05-11T06:41:33.704Z,3.80
2023-05-11T06:44:00.804Z,3.37
2023-05-11T06:46:35.410Z,3.47
2023-05-11T06:49:02.206Z,3.15
2023-05-11T06:51:30.106Z,3.58
2023-05-11T06:53:56.774Z,3.40
2023-05-11T06:56:23.479Z,3.27
2023-05-11T06:58:50.275Z,3.28
2023-05-11T07:01:17.247Z,3.30
2023-05-11T07:03:44.190Z,3.78
2023-05-11T07:06:11.043Z,3.35
2023-05-11T07:08:38.034Z,4.00
2023-05-11T07:11:04.749Z,3.50
2023-05-11T07:13:31.460Z,3.58
2023-05-11T07:15:58.341Z,3.70
2023-05-11T07:18:25.098Z,3.40
2023-05-11T07:20:51.888Z,3.33
2023-05-11T07:23:18.553Z,3.17
2023-05-11T07:25:45.261Z,3.42
2023-05-11T07:28:12.025Z,3.25
2023-05-11T07:30:38.688Z,3.53
2023-05-11T07:33:06.642Z,3.50
2023-05-11T07:35:33.355Z,3.38
2023-05-11T07:38:00.126Z,3.58
2023-05-11T07:40:27.035Z,4.00
2023-05-11T07:42:54.165Z,3.65
2023-05-11T07:45:20.830Z,3.77
2023-05-11T07:47:47.685Z,3.50
2023-05-11T07:50:14.497Z,3.45
2023-05-11T07:52:41.962Z,3.40
2023-05-11T07:55:08.766Z,3.33
2023-05-11T07:57:35.562Z,3.17
2023-05-11T08:00:03.834Z,3.20
2023-05-11T08:02:38.602Z,4.30
2023-05-11T08:05:05.811Z,3.47
2023-05-11T08:07:32.457Z,3.58
2023-05-11T08:09:59.249Z,3.53
2023-05-11T08:12:26.155Z,3.78
2023-05-11T08:14:52.802Z,3.60
2023-05-11T08:17:19.499Z,4.20
2023-05-11T08:19:46.606Z,3.50
2023-05-11T08:22:13.440Z,3.50
2023-05-11T08:24:40.332Z,3.50
2023-05-11T08:27:07.026Z,3.65
2023-05-11T08:29:33.889Z,3.00
2023-05-11T08:32:01.157Z,3.38
2023-05-11T08:34:27.896Z,3.10
2023-05-11T08:36:56.006Z,3.17
2023-05-11T08:39:39.028Z,3.28
2023-05-11T08:42:10.461Z,3.65
2023-05-11T08:44:39.116Z,3.55
2023-05-11T08:47:21.790Z,3.20
2023-05-11T08:49:51.759Z,3.97
2023-05-11T08:52:18.940Z,3.42
2023-05-11T08:54:46.588Z,3.50
2023-05-11T08:57:14.987Z,3.63
2023-05-11T08:59:44.564Z,3.33
2023-05-11T09:02:16.340Z,3.90
2023-05-11T09:04:46.015Z,3.13
2023-05-11T09:07:17.392Z,3.20
2023-05-11T09:09:45.567Z,3.75
2023-05-11T09:12:12.608Z,3.67
2023-05-11T09:14:39.588Z,3.58
2023-05-11T09:17:06.519Z,3.38
2023-05-11T09:19:33.414Z,3.78
2023-05-11T09:22:00.684Z,3.40
2023-05-11T09:24:28.099Z,3.67
2023-05-11T09:27:09.079Z,3.42
2023-05-11T09:29:36.007Z,3.75
2023-05-11T09:32:02.820Z,3.60
2023-05-11T09:34:29.591Z,3.53
2023-05-11T09:36:57.481Z,3.90
2023-05-11T09:39:44.111Z,3.63
2023-05-11T09:42:23.949Z,3.75
2023-05-11T09:44:50.714Z,3.40
2023-05-11T09:47:19.245Z,3.45
2023-05-11T09:49:47.751Z,3.20
2023-05-11T09:52:16.918Z,3.70
2023-05-11T09:54:52.850Z,3.60
2023-05-11T09:57:30.695Z,3.78
2023-05-11T09:59:59.612Z,3.80
2023-05-11T10:02:32.219Z,3.53
2023-05-11T10:05:11.876Z,3.75
2023-05-11T10:07:39.258Z,3.33
2023-05-11T10:10:08.015Z,4.25
2023-05-11T10:12:38.605Z,3.78
2023-05-11T10:15:07.757Z,3.70
2023-05-11T10:17:35.424Z,3.40
2023-05-11T10:20:04.075Z,3.70
2023-05-11T10:22:31.745Z,3.22
2023-05-11T10:24:59.895Z,3.65
2023-05-11T10:27:27.237Z,3.10
2023-05-11T10:29:54.319Z,3.67
2023-05-11T10:32:21.537Z,3.20
2023-05-11T10:34:48.618Z,3.63
2023-05-11T10:37:15.662Z,3.10
2023-05-11T10:39:44.330Z,3.87
2023-05-11T10:42:29.531Z,3.35
2023-05-11T10:45:24.076Z,3.28
2023-05-11T10:48:24.987Z,3.40
2023-05-11T10:51:01.032Z,3.15
2023-05-11T10:53:46.756Z,3.20
2023-05-11T10:56:35.316Z,3.20
2023-05-11T10:59:07.733Z,3.25
2023-05-11T11:01:42.034Z,3.22
2023-05-11T11:04:11.109Z,3.28
2023-05-11T11:06:43.986Z,3.23
2023-05-11T11:09:15.874Z,3.60
2023-05-11T11:11:48.086Z,3.30
2023-05-11T11:14:16.478Z,3.20
2023-05-11T11:17:15.673Z,3.20
2023-05-11T11:19:43.474Z,3.33
2023-05-11T11:22:38.916Z,3.28
2023-05-11T11:25:07.831Z,3.35
2023-05-11T11:27:40.376Z,3.50
2023-05-11T11:30:20.200Z,3.20
2023-05-11T11:32:55.690Z,3.20
2023-05-11T11:35:40.654Z,3.42
2023-05-11T11:38:15.836Z,3.42
2023-05-11T11:43:21.634Z,3.47
2023-05-11T11:46:04.085Z,3.27
2023-05-11T11:48:33.667Z,3.95
2023-05-11T11:51:14.040Z,4.13
2023-05-11T11:53:41.205Z,3.28
2023-05-11T11:56:13.913Z,3.45
2023-05-11T11:58:43.664Z,3.30
2023-05-11T12:01:14.389Z,3.30
2023-05-11T12:03:43.967Z,3.42
2023-05-11T12:06:12.111Z,3.25
2023-05-11T12:08:40.303Z,3.28
2023-05-11T12:11:07.938Z,3.27
2023-05-11T12:13:35.847Z,3.30
2023-05-11T12:16:12.829Z,3.22
2023-05-11T12:18:40.263Z,3.30
2023-05-11T12:21:07.345Z,3.20
2023-05-11T12:23:34.129Z,4.03
2023-05-11T12:26:05.961Z,3.60
2023-05-11T12:28:36.083Z,3.30
2023-05-11T12:31:02.786Z,3.60
2023-05-11T12:33:29.476Z,3.50
2023-05-11T12:35:57.240Z,3.20
2023-05-11T12:38:24.104Z,3.83
2023-05-11T12:40:53.121Z,3.22
2023-05-11T12:43:22.269Z,2.90
2023-05-11T12:45:49.388Z,3.50
2023-05-11T12:48:16.540Z,3.83
2023-05-11T12:50:45.236Z,3.67
2023-05-11T12:53:14.120Z,3.60
2023-05-11T12:55:41.798Z,3.40
2023-05-11T12:58:18.795Z,3.30
2023-05-11T13:00:56.759Z,3.30
2023-05-11T13:03:29.015Z,3.00
2023-05-11T13:06:09.035Z,3.45
2023-05-11T13:08:37.493Z,3.22
2023-05-11T13:11:37.069Z,3.50
2023-05-11T13:14:16.856Z,3.70
2023-05-11T13:16:54.106Z,3.22
2023-05-11T13:19:31.304Z,3.17
2023-05-11T13:21:58.480Z,3.53
2023-05-11T13:24:26.582Z,3.78
2023-05-11T13:26:54.881Z,3.90
2023-05-11T13:29:21.777Z,4.05
2023-05-11T13:31:51.274Z,3.25
2023-05-11T13:34:19.344Z,3.50
2023-05-11T13:36:47.056Z,3.40
2023-05-11T13:39:13.832Z,3.50
2023-05-11T13:41:40.482Z,3.25
2023-05-11T13:44:07.373Z,3.70
2023-05-11T13:46:35.098Z,3.20
2023-05-11T13:49:01.893Z,3.03
2023-05-11T13:51:28.787Z,3.47
2023-05-11T13:53:55.524Z,3.45
2023-05-11T13:56:22.416Z,3.83
2023-05-11T13:58:49.298Z,3.58
2023-05-11T14:01:16.410Z,3.65
2023-05-11T14:03:43.596Z,4.20
2023-05-11T14:06:10.414Z,3.85
2023-05-11T14:08:37.104Z,3.78
2023-05-11T14:11:03.863Z,3.65
2023-05-11T14:13:30.644Z,3.90
2023-05-11T14:15:57.295Z,4.10
2023-05-11T14:18:26.047Z,4.28
2023-05-11T14:20:53.982Z,4.00
2023-05-11T14:23:20.731Z,4.00
2023-05-11T14:25:47.403Z,4.20
2023-05-11T14:28:14.193Z,4.80
2023-05-11T14:30:41.066Z,4.05
2023-05-11T14:33:07.823Z,4.40
2023-05-11T14:35:36.003Z,4.15
2023-05-11T14:38:04.629Z,3.97
2023-05-11T14:40:31.484Z,3.77
2023-05-11T14:42:58.250Z,4.18
2023-05-11T14:45:25.015Z,3.92
2023-05-11T14:47:51.894Z,4.32
2023-05-11T14:50:18.798Z,3.97
2023-05-11T14:52:45.686Z,3.97
2023-05-11T14:55:12.616Z,4.10
2023-05-11T14:57:39.565Z,4.03
2023-05-11T15:00:07.214Z,4.10
2023-05-11T15:02:34.317Z,3.88
2023-05-11T15:05:01.188Z,3.73
2023-05-11T15:07:28.042Z,3.85
2023-05-11T15:09:54.932Z,3.60
2023-05-11T15:12:21.851Z,3.85
2023-05-11T15:14:50.746Z,4.25
2023-05-11T15:17:17.526Z,4.50
2023-05-11T15:19:45.131Z,4.43
2023-05-11T15:22:12.025Z,3.95
2023-05-11T15:24:38.971Z,4.10
2023-05-11T15:27:06.056Z,3.92
2023-05-11T15:29:32.833Z,3.93
2023-05-11T15:32:08.815Z,3.92
2023-05-11T15:34:44.366Z,4.20
2023-05-11T15:37:17.933Z,3.90
2023-05-11T15:39:44.515Z,4.07
2023-05-11T15:42:11.199Z,4.30
2023-05-11T15:44:37.914Z,4.47
2023-05-11T15:47:06.118Z,5.10
2023-05-11T15:49:33.222Z,4.13
2023-05-11T15:52:00.213Z,4.13
2023-05-11T15:54:27.396Z,4.30
2023-05-11T15:56:54.305Z,4.35
2023-05-11T15:59:21.274Z,4.68
2023-05-11T16:01:48.484Z,3.97
2023-05-11T16:04:15.326Z,3.80
2023-05-11T16:06:42.075Z,4.23
2023-05-11T16:09:10.054Z,4.13
2023-05-11T16:11:37.004Z,3.95
2023-05-11T16:14:03.783Z,3.72
2023-05-11T16:16:31.096Z,4.10
2023-05-11T16:18:59.213Z,4.33
2023-05-11T16:21:26.635Z,8.98
2023-05-11T16:23:53.302Z,18.40
2023-05-11T16:26:20.450Z,13.75
2023-05-11T16:28:47.448Z,8.45
2023-05-11T16:31:14.236Z,4.50
2023-05-11T16:33:41.058Z,5.18
2023-05-11T16:36:10.316Z,5.55
2023-05-11T16:38:37.325Z,6.70
2023-05-11T16:41:04.082Z,5.72
2023-05-11T16:43:32.567Z,6.07
2023-05-11T16:45:59.477Z,6.35
2023-05-11T16:48:27.096Z,4.75
2023-05-11T16:50:56.560Z,5.25
2023-05-11T16:53:27.171Z,4.65
2023-05-11T16:55:55.380Z,3.93
2023-05-11T16:58:22.981Z,4.60
2023-05-11T17:00:50.107Z,4.55
2023-05-11T17:03:17.879Z,4.57
2023-05-11T17:05:45.358Z,4.90
2023-05-11T17:08:12.064Z,4.13
2023-05-11T17:10:38.829Z,3.92
2023-05-11T17:13:05.570Z,4.68
2023-05-11T17:15:35.349Z,4.20
2023-05-11T17:18:02.190Z,4.32
2023-05-11T17:20:32.604Z,4.53
2023-05-11T17:22:59.452Z,4.43
2023-05-11T17:25:26.161Z,4.25
2023-05-11T17:27:53.018Z,4.30
2023-05-11T17:30:20.958Z,4.22
2023-05-11T17:32:49.052Z,4.27
2023-05-11T17:35:15.884Z,4.63
2023-05-11T17:37:42.597Z,6.15
2023-05-11T17:40:09.556Z,3.97
2023-05-11T17:42:36.311Z,4.10
2023-05-11T17:45:03.351Z,4.43
2023-05-11T17:47:31.631Z,4.38
2023-05-11T17:50:01.727Z,4.65
2023-05-11T17:52:32.573Z,4.63
2023-05-11T17:54:59.797Z,4.75
2023-05-11T17:57:26.544Z,5.63
2023-05-11T17:59:53.611Z,4.68
2023-05-11T18:02:20.377Z,4.30
2023-05-11T18:04:47.232Z,4.07
2023-05-11T18:07:13.955Z,5.25
2023-05-11T18:09:40.680Z,4.70
2023-05-11T18:12:08.489Z,4.97
2023-05-11T18:14:37.572Z,4.45
2023-05-11T18:17:05.204Z,4.40
2023-05-11T18:19:31.986Z,4.75
2023-05-11T18:21:59.090Z,4.47
2023-05-11T18:24:26.751Z,4.22
2023-05-11T18:26:53.660Z,4.22
2023-05-11T18:29:21.950Z,5.18
2023-05-11T18:31:49.518Z,5.18
2023-05-11T18:34:16.317Z,4.50
2023-05-11T18:36:43.014Z,4.30
2023-05-11T18:39:09.664Z,4.53
2023-05-11T18:41:36.372Z,5.20
2023-05-11T18:44:03.289Z,5.10
2023-05-11T18:46:30.066Z,5.20
2023-05-11T18:48:57.238Z,4.75
2023-05-11T18:51:24.135Z,4.35
2023-05-11T18:53:51.053Z,4.60
2023-05-11T18:56:17.881Z,4.75
2023-05-11T18:58:46.453Z,4.70
2023-05-11T19:01:13.381Z,4.60
2023-05-11T19:03:40.325Z,5.00
2023-05-11T19:06:07.680Z,4.93
2023-05-11T19:08:35.146Z,4.30
2023-05-11T19:11:07.001Z,4.40
2023-05-11T19:13:37.067Z,4.60
2023-05-11T19:16:04.967Z,4.00
2023-05-11T19:18:35.630Z,4.15
2023-05-11T19:21:06.048Z,4.63
2023-05-11T19:23:33.462Z,4.97
2023-05-11T19:26:02.354Z,4.32
2023-05-11T19:28:36.200Z,4.63
2023-05-11T19:31:12.955Z,4.93
2023-05-11T19:33:47.263Z,4.88
2023-05-11T19:36:20.834Z,4.30
2023-05-11T19:38:47.554Z,4.63
2023-05-11T19:41:14.264Z,4.72
2023-05-11T19:43:40.897Z,4.90
2023-05-11T19:46:07.941Z,4.40
2023-05-11T19:48:34.861Z,4.80
2023-05-11T19:51:01.702Z,4.35
2023-05-11T19:53:28.753Z,4.10
2023-05-11T19:55:55.526Z,4.07
2023-05-11T19:58:23.390Z,4.38
2023-05-11T20:00:50.274Z,4.20
2023-05-11T20:03:17.210Z,4.47
2023-05-11T20:05:44.304Z,4.20
2023-05-11T20:08:11.227Z,4.53
2023-05-11T20:10:38.425Z,4.40
2023-05-11T20:13:06.250Z,4.17
2023-05-11T20:15:34.090Z,4.72
2023-05-11T20:18:04.320Z,5.10
2023-05-11T20:20:31.806Z,4.70
2023-05-11T20:22:59.308Z,4.43
2023-05-11T20:25:26.572Z,4.77
2023-05-11T20:27:53.289Z,4.38
2023-05-11T20:30:23.076Z,5.13
2023-05-11T20:35:19.909Z,4.78
2023-05-11T20:37:47.266Z,4.80
2023-05-11T20:40:14.024Z,4.85
2023-05-11T20:42:43.162Z,4.75
2023-05-11T20:45:10.325Z,4.60
2023-05-11T20:47:43.140Z,4.35
2023-05-11T20:50:10.498Z,4.60
2023-05-11T20:52:37.639Z,4.28
2023-05-11T20:55:04.956Z,4.75
2023-05-11T20:57:31.703Z,4.88
2023-05-11T21:02:28.534Z,4.97
2023-05-11T21:05:01.692Z,4.55
2023-05-11T21:07:29.317Z,5.22
2023-05-11T21:09:56.036Z,5.07
2023-05-11T21:12:22.828Z,5.22
2023-05-11T21:14:49.500Z,4.87
2023-05-11T21:17:17.487Z,4.70
2023-05-11T21:19:44.217Z,5.07
2023-05-11T21:22:11.030Z,5.55
2023-05-11T21:24:37.792Z,5.50
2023-05-11T21:27:05.369Z,4.37
2023-05-11T21:29:32.056Z,4.03
2023-05-11T21:31:58.765Z,4.22
2023-05-11T21:34:25.457Z,3.95
2023-05-11T21:36:52.429Z,4.25
2023-05-11T21:39:19.128Z,4.20
2023-05-11T21:41:45.868Z,3.58
2023-05-11T21:44:12.564Z,4.53
2023-05-11T21:46:39.300Z,3.90
2023-05-11T21:49:06.204Z,4.07
2023-05-11T21:51:33.462Z,4.70
2023-05-11T21:54:00.502Z,5.20
2023-05-11T21:56:27.248Z,4.57
2023-05-11T21:58:53.962Z,5.07
2023-05-11T22:01:20.756Z,4.90
2023-05-11T22:03:47.719Z,4.83
2023-05-11T22:06:15.151Z,4.50
2023-05-11T22:08:41.822Z,4.10
2023-05-11T22:11:08.641Z,5.15
2023-05-11T22:13:35.334Z,4.20
2023-05-11T22:16:03.337Z,4.63
2023-05-11T22:18:30.086Z,5.28
2023-05-11T22:20:56.810Z,5.03
2023-05-11T22:23:23.625Z,5.10
2023-05-11T22:25:50.820Z,4.75
2023-05-11T22:28:17.696Z,4.70
2023-05-11T22:30:44.889Z,4.55
2023-05-11T22:33:11.654Z,5.07
2023-05-11T22:35:38.420Z,4.63
2023-05-11T22:38:05.440Z,5.13
2023-05-11T22:40:32.159Z,4.60
2023-05-11T22:42:58.832Z,5.10
2023-05-11T22:45:25.620Z,5.22
2023-05-11T22:47:52.443Z,4.30
2023-05-11T22:50:19.421Z,4.20
2023-05-11T22:52:47.330Z,4.30
2023-05-11T22:55:14.172Z,4.90
2023-05-11T22:57:40.936Z,4.38
2023-05-11T23:00:10.651Z,4.53
2023-05-11T23:02:38.081Z,4.97
2023-05-11T23:05:05.433Z,5.20
2023-05-11T23:07:32.155Z,4.78
2023-05-11T23:09:58.902Z,4.55
2023-05-11T23:12:25.635Z,4.90
2023-05-11T23:14:52.431Z,3.70
2023-05-11T23:17:19.539Z,3.63
2023-05-11T23:19:46.218Z,4.70
2023-05-11T23:22:13.139Z,4.45
2023-05-11T23:24:39.810Z,4.22
2023-05-11T23:27:07.334Z,5.05
2023-05-11T23:29:34.188Z,4.50
2023-05-11T23:32:02.010Z,4.22
2023-05-11T23:34:28.831Z,4.32
2023-05-11T23:36:55.570Z,4.30
2023-05-11T23:39:22.332Z,4.93
2023-05-11T23:41:49.500Z,4.13
2023-05-11T23:44:17.540Z,4.72
2023-05-11T23:46:44.249Z,3.95
2023-05-11T23:49:11.037Z,4.60
2023-05-11T23:51:37.667Z,4.25
2023-05-11T23:54:04.421Z,4.43
2023-05-11T23:56:31.199Z,4.00
2023-05-11T23:58:58.031Z,4.13
